createdAt,value
2022-11-23T07:47:19.007Z,193.52
2022-11-23T07:49:47.390Z,159.60
2022-11-23T07:52:15.106Z,168.85
2022-11-23T07:54:42.801Z,145.43
2022-11-23T07:57:10.411Z,159.25
2022-11-23T07:59:38.008Z,160.20
2022-11-23T08:02:05.800Z,158.00
2022-11-23T08:04:37.033Z,148.05
2022-11-23T08:07:05.432Z,143.82
2022-11-23T08:09:33.014Z,150.35
2022-11-23T08:12:01.166Z,158.45
2022-11-23T08:14:33.440Z,152.90
2022-11-23T08:17:01.226Z,167.98
2022-11-23T08:19:29.129Z,146.55
2022-11-23T08:21:58.754Z,136.57
2022-11-23T08:24:26.314Z,133.98
2022-11-23T08:26:54.244Z,124.60
2022-11-23T08:29:22.006Z,150.18
2022-11-23T08:31:49.802Z,118.60
2022-11-23T08:34:17.368Z,110.00
2022-11-23T08:36:45.302Z,118.68
2022-11-23T08:39:14.646Z,103.22
2022-11-23T08:41:42.711Z,111.80
2022-11-23T08:44:10.793Z,92.05
2022-11-23T08:46:38.974Z,81.65
2022-11-23T08:49:06.983Z,84.03
2022-11-23T08:51:35.148Z,63.10
2022-11-23T08:54:02.827Z,52.58
2022-11-23T08:56:32.786Z,51.83
2022-11-23T08:59:00.461Z,50.92
2022-11-23T09:01:28.284Z,48.10
2022-11-23T09:03:55.868Z,49.80
2022-11-23T09:06:24.617Z,47.47
2022-11-23T09:08:52.709Z,60.03
2022-11-23T09:11:20.286Z,46.97
2022-11-23T09:13:50.566Z,48.58
2022-11-23T09:16:22.105Z,49.83
2022-11-23T09:18:50.575Z,48.95
2022-11-23T09:21:18.246Z,46.22
2022-11-23T09:23:45.772Z,45.40
2022-11-23T09:26:13.847Z,42.30
2022-11-23T09:28:45.009Z,42.42
2022-11-23T09:31:14.440Z,41.30
2022-11-23T09:33:42.289Z,39.40
2022-11-23T09:36:10.115Z,42.88
2022-11-23T09:38:56.119Z,37.22
2022-11-23T09:41:51.127Z,37.72
2022-11-23T09:44:24.842Z,36.55
2022-11-23T09:47:23.526Z,34.83
2022-11-23T09:50:02.447Z,34.78
2022-11-23T09:52:31.438Z,36.88
2022-11-23T09:55:05.484Z,35.88
2022-11-23T09:57:35.035Z,35.30
2022-11-23T10:00:06.304Z,42.13
2022-11-23T10:02:40.567Z,33.47
2022-11-23T10:05:16.267Z,40.35
2022-11-23T10:07:55.192Z,39.42
2022-11-23T10:10:38.873Z,34.45
2022-11-23T10:13:22.472Z,33.90
2022-11-23T10:16:02.558Z,44.25
2022-11-23T10:18:45.960Z,39.78
2022-11-23T10:21:22.621Z,36.38
2022-11-23T10:23:54.094Z,27.45
2022-11-23T10:26:29.080Z,36.53
2022-11-23T10:29:02.864Z,28.35
2022-11-23T10:31:31.511Z,35.33
2022-11-23T10:34:08.455Z,26.40
2022-11-23T10:36:37.127Z,25.70
2022-11-23T10:39:16.671Z,27.20
2022-11-23T10:41:45.403Z,29.08
2022-11-23T10:44:27.055Z,29.85
2022-11-23T10:46:54.880Z,30.88
2022-11-23T10:49:25.124Z,24.23
2022-11-23T10:51:56.420Z,24.57
2022-11-23T10:54:29.153Z,29.23
2022-11-23T10:56:59.349Z,30.73
2022-11-23T10:59:38.897Z,30.27
2022-11-23T11:02:18.531Z,33.97
2022-11-23T11:04:53.245Z,30.27
2022-11-23T11:07:27.971Z,31.52
2022-11-23T11:09:58.204Z,32.70
2022-11-23T11:12:27.193Z,34.63
2022-11-23T11:15:10.466Z,33.35
2022-11-23T11:17:40.084Z,32.90
2022-11-23T11:20:29.273Z,38.83
2022-11-23T11:22:58.230Z,37.70
2022-11-23T11:25:30.648Z,43.38
2022-11-23T11:27:59.479Z,43.08
2022-11-23T11:30:38.905Z,41.70
2022-11-23T11:33:14.749Z,28.10
2022-11-23T11:35:49.259Z,32.63
2022-11-23T11:38:21.122Z,25.23
2022-11-23T11:40:51.007Z,29.92
2022-11-23T11:43:31.297Z,30.23
2022-11-23T11:46:27.911Z,29.20
2022-11-23T11:48:58.010Z,32.10
2022-11-23T11:51:34.387Z,24.65
2022-11-23T11:54:13.617Z,29.95
2022-11-23T11:56:44.988Z,25.33
2022-11-23T11:59:17.286Z,25.75
2022-11-23T12:01:54.376Z,29.20
2022-11-23T12:04:28.318Z,26.42
2022-11-23T12:07:05.836Z,28.33
2022-11-23T12:09:40.458Z,29.80
2022-11-23T12:12:15.147Z,30.55
2022-11-23T12:14:43.905Z,35.63
2022-11-23T12:17:45.702Z,34.95
2022-11-23T12:20:20.740Z,28.60
2022-11-23T12:23:04.636Z,37.95
2022-11-23T12:25:35.288Z,29.42
2022-11-23T12:28:27.943Z,29.83
